createdAt,value
2019-03-10T00:03:53.062Z,0.90
2019-03-10T00:08:52.761Z,1.73
2019-03-10T00:13:52.437Z,1.80
2019-03-10T00:18:52.370Z,1.63
2019-03-10T00:23:51.967Z,2.23
2019-03-10T00:28:51.947Z,2.30
2019-03-10T00:33:52.005Z,1.83
2019-03-10T00:39:48.074Z,1.70
2019-03-10T00:45:29.470Z,2.10
2019-03-10T00:51:00.219Z,1.47
2019-03-10T00:55:59.866Z,1.90
2019-03-10T01:00:59.498Z,1.97
2019-03-10T01:05:59.290Z,1.97
2019-03-10T01:10:59.094Z,2.77
2019-03-10T01:15:59.590Z,2.03
2019-03-10T01:21:10.871Z,2.67
2019-03-10T01:26:10.815Z,3.30
2019-03-10T01:31:25.978Z,1.90
2019-03-10T01:36:24.313Z,2.33
2019-03-10T01:41:23.958Z,2.10
2019-03-10T01:46:23.593Z,2.30
2019-03-10T01:51:23.606Z,2.67
2019-03-10T01:56:23.260Z,2.63
2019-03-10T02:01:22.882Z,2.90
2019-03-10T02:06:22.542Z,1.93
2019-03-10T02:11:22.166Z,1.77
2019-03-10T02:16:21.787Z,2.37
2019-03-10T02:21:21.718Z,2.33
2019-03-10T02:26:21.646Z,1.73
2019-03-10T02:31:21.651Z,2.07
2019-03-10T02:36:21.299Z,1.40
2019-03-10T02:41:20.960Z,1.30
2019-03-10T02:46:20.958Z,1.00
2019-03-10T02:51:20.605Z,1.50
2019-03-10T02:56:20.243Z,1.00
2019-03-10T03:01:19.866Z,0.90
2019-03-10T03:06:19.503Z,0.80
2019-03-10T03:11:19.404Z,0.80
2019-03-10T03:16:19.132Z,1.20
2019-03-10T03:21:19.122Z,1.27
2019-03-10T03:26:18.934Z,1.53
2019-03-10T03:31:18.595Z,1.40
2019-03-10T03:36:22.800Z,1.57
2019-03-10T03:41:22.575Z,1.70
2019-03-10T03:46:22.519Z,4.20
2019-03-10T03:51:22.172Z,2.00
2019-03-10T03:56:21.859Z,1.83
2019-03-10T04:01:24.720Z,2.00
2019-03-10T04:06:24.367Z,2.20
2019-03-10T04:11:23.979Z,1.83
2019-03-10T04:16:23.636Z,2.80
2019-03-10T04:21:23.734Z,1.43
2019-03-10T04:26:23.462Z,2.03
2019-03-10T04:31:23.111Z,2.50
2019-03-10T04:36:22.945Z,1.77
2019-03-10T04:41:22.890Z,3.30
2019-03-10T04:46:22.544Z,1.60
2019-03-10T04:51:22.266Z,1.80
2019-03-10T04:56:30.424Z,2.67
2019-03-10T05:01:30.110Z,2.47
2019-03-10T05:06:29.734Z,1.90
2019-03-10T05:11:29.675Z,2.43
2019-03-10T05:16:29.454Z,2.47
2019-03-10T05:21:29.722Z,2.00
2019-03-10T05:26:29.542Z,2.20
2019-03-10T05:31:29.315Z,2.37
2019-03-10T05:36:28.950Z,1.90
2019-03-10T05:41:28.867Z,1.53
2019-03-10T05:46:28.550Z,2.00
2019-03-10T05:51:28.198Z,1.73
2019-03-10T05:56:27.959Z,2.20
2019-03-10T06:01:27.684Z,2.80
2019-03-10T06:06:27.366Z,3.17
2019-03-10T06:11:27.407Z,1.50
2019-03-10T06:16:27.054Z,2.00
2019-03-10T06:21:26.705Z,1.70
2019-03-10T06:26:26.642Z,2.00
2019-03-10T06:31:26.271Z,2.03
2019-03-10T06:36:25.902Z,1.97
2019-03-10T06:41:25.562Z,1.57
2019-03-10T06:46:25.206Z,2.60
2019-03-10T06:51:24.858Z,2.17
2019-03-10T06:56:25.737Z,2.60
2019-03-10T07:01:25.610Z,1.73
2019-03-10T07:06:25.234Z,2.50
2019-03-10T07:11:24.885Z,2.50
2019-03-10T07:16:24.540Z,2.80
2019-03-10T07:21:24.494Z,2.20
2019-03-10T07:26:24.150Z,2.87
2019-03-10T07:31:31.025Z,3.00
2019-03-10T07:36:49.648Z,3.00
2019-03-10T07:42:02.054Z,2.40
2019-03-10T07:47:26.829Z,2.13
2019-03-10T07:52:44.242Z,2.57
2019-03-10T07:58:01.950Z,3.70
2019-03-10T08:03:10.822Z,2.07
2019-03-10T08:08:31.802Z,2.13
2019-03-10T08:13:42.492Z,2.40
2019-03-10T08:19:03.202Z,2.83
2019-03-10T08:24:18.394Z,2.63
2019-03-10T08:29:29.991Z,2.47
2019-03-10T08:34:55.147Z,2.50
2019-03-10T08:40:01.714Z,3.60
2019-03-10T08:45:11.090Z,2.60
2019-03-10T08:50:26.162Z,3.00
2019-03-10T08:55:33.975Z,2.73
2019-03-10T09:00:40.608Z,3.17
2019-03-10T09:06:01.903Z,2.73
2019-03-10T09:11:30.493Z,3.53
2019-03-10T09:16:49.320Z,3.90
2019-03-10T09:22:14.947Z,4.13
2019-03-10T09:27:43.301Z,2.73
2019-03-10T09:32:55.652Z,3.57
2019-03-10T09:38:14.915Z,3.40
2019-03-10T09:43:28.158Z,2.90
2019-03-10T09:48:37.001Z,2.63
2019-03-10T09:53:54.743Z,2.90
2019-03-10T09:59:06.763Z,3.37
2019-03-10T10:04:34.150Z,3.20
2019-03-10T10:09:43.186Z,2.33
2019-03-10T10:15:04.823Z,2.40
2019-03-10T10:20:11.394Z,2.43
2019-03-10T10:25:16.674Z,2.67
2019-03-10T10:30:35.358Z,2.53
2019-03-10T10:36:01.494Z,1.80
2019-03-10T10:41:19.326Z,2.67
2019-03-10T10:46:37.195Z,2.07
2019-03-10T10:52:14.419Z,2.10
2019-03-10T10:57:24.154Z,2.10
2019-03-10T11:02:31.887Z,2.43
2019-03-10T11:07:50.690Z,2.40
2019-03-10T11:12:56.783Z,2.43
2019-03-10T11:18:18.304Z,2.07
2019-03-10T11:23:38.417Z,2.70
2019-03-10T11:29:09.475Z,2.40
2019-03-10T11:34:46.567Z,3.20
2019-03-10T11:39:52.406Z,2.80
2019-03-10T11:45:29.382Z,2.20
2019-03-10T11:50:38.868Z,3.20
2019-03-10T11:55:54.887Z,2.10
2019-03-10T12:01:16.715Z,2.57
2019-03-10T12:06:26.602Z,1.70
2019-03-10T12:11:26.863Z,1.77
2019-03-10T12:16:26.597Z,2.63
2019-03-10T12:21:26.234Z,1.90
2019-03-10T12:26:26.430Z,2.40
2019-03-10T12:31:26.614Z,1.70
2019-03-10T12:36:26.376Z,2.17
2019-03-10T12:41:26.334Z,1.80
2019-03-10T12:46:25.990Z,2.17
2019-03-10T12:51:25.927Z,2.80
2019-03-10T12:56:25.914Z,2.47
2019-03-10T13:01:28.500Z,1.80
2019-03-10T13:06:34.286Z,2.40
2019-03-10T13:11:33.951Z,2.00
2019-03-10T13:16:33.616Z,2.27
2019-03-10T13:21:33.353Z,1.43
2019-03-10T13:26:33.014Z,3.00
2019-03-10T13:31:32.943Z,2.53
2019-03-10T13:36:33.290Z,2.00
2019-03-10T13:41:32.970Z,2.10
2019-03-10T13:46:32.695Z,2.30
2019-03-10T13:51:32.343Z,2.90
2019-03-10T13:56:32.054Z,2.50
2019-03-10T14:01:31.855Z,2.50
2019-03-10T14:06:31.658Z,2.40
2019-03-10T14:11:31.903Z,2.20
2019-03-10T14:16:31.535Z,2.37
2019-03-10T14:21:32.379Z,2.37
2019-03-10T14:26:32.480Z,3.23
2019-03-10T14:31:32.091Z,3.07
2019-03-10T14:36:31.719Z,2.50
2019-03-10T14:41:31.706Z,2.40
2019-03-10T14:46:31.362Z,2.70
2019-03-10T14:51:43.387Z,2.50
2019-03-10T14:56:43.030Z,2.80
2019-03-10T15:01:42.738Z,5.57
2019-03-10T15:06:42.827Z,3.60
2019-03-10T15:11:42.469Z,4.23
2019-03-10T15:16:42.155Z,5.00
2019-03-10T15:21:41.802Z,4.33
2019-03-10T15:26:45.744Z,4.10
2019-03-10T15:31:43.033Z,3.70
2019-03-10T15:36:43.703Z,4.83
2019-03-10T15:41:43.418Z,3.70
2019-03-10T15:46:43.054Z,5.03
2019-03-10T15:51:42.807Z,4.70
2019-03-10T15:56:42.462Z,4.80
2019-03-10T16:01:43.238Z,3.40
2019-03-10T16:06:42.974Z,2.87
2019-03-10T16:11:42.626Z,2.47
2019-03-10T16:16:42.342Z,2.57
2019-03-10T16:21:42.234Z,2.67
2019-03-10T16:26:41.871Z,2.03
2019-03-10T16:31:41.518Z,2.57
2019-03-10T16:36:41.489Z,2.20
2019-03-10T16:41:41.525Z,2.40
2019-03-10T16:46:41.170Z,1.30
2019-03-10T16:51:40.810Z,1.53
2019-03-10T16:56:40.812Z,1.80
2019-03-10T17:01:40.552Z,1.20
2019-03-10T17:06:40.193Z,1.50
2019-03-10T17:11:39.885Z,1.80
2019-03-10T17:16:39.916Z,5.10
2019-03-10T17:21:41.863Z,1.30
2019-03-10T17:26:40.904Z,2.70
2019-03-10T17:31:40.734Z,2.50
2019-03-10T17:36:40.375Z,2.87
2019-03-10T17:41:40.085Z,2.93
2019-03-10T17:46:39.806Z,2.90
2019-03-10T17:51:39.461Z,2.50
2019-03-10T17:56:39.154Z,2.00
2019-03-10T18:01:39.710Z,3.20
2019-03-10T18:06:39.432Z,4.73
2019-03-10T18:11:39.184Z,3.77
2019-03-10T18:16:38.838Z,2.77
2019-03-10T18:21:38.515Z,3.03
2019-03-10T18:26:38.259Z,3.20
2019-03-10T18:31:37.927Z,6.00
2019-03-10T18:36:37.655Z,3.57
2019-03-10T18:41:37.293Z,3.40
2019-03-10T18:46:36.943Z,4.20
2019-03-10T18:51:36.608Z,3.73
2019-03-10T18:56:36.226Z,3.37
2019-03-10T19:01:36.150Z,3.93
2019-03-10T19:06:35.794Z,3.40
2019-03-10T19:11:36.642Z,3.50
2019-03-10T19:16:36.315Z,3.70
2019-03-10T19:21:35.962Z,2.87
2019-03-10T19:26:35.912Z,2.93
2019-03-10T19:31:35.571Z,2.40
2019-03-10T19:36:35.443Z,2.27
2019-03-10T19:41:35.200Z,2.50
2019-03-10T19:46:34.902Z,2.20
2019-03-10T19:51:34.526Z,1.30
2019-03-10T19:56:34.483Z,2.00
2019-03-10T20:01:35.284Z,1.50
2019-03-10T20:06:35.584Z,3.45
2019-03-10T20:11:35.344Z,2.50
2019-03-10T20:16:34.992Z,2.53
2019-03-10T20:21:34.694Z,2.77
2019-03-10T20:26:34.361Z,2.93
2019-03-10T20:31:34.042Z,3.90
2019-03-10T20:36:33.732Z,2.70
2019-03-10T20:41:33.459Z,2.60
2019-03-10T20:46:33.116Z,2.00
2019-03-10T20:51:32.756Z,3.23
2019-03-10T20:56:32.751Z,3.53
2019-03-10T21:01:32.399Z,4.60
2019-03-10T21:06:32.023Z,2.87
2019-03-10T21:11:31.665Z,3.27
2019-03-10T21:16:31.339Z,2.13
2019-03-10T21:21:31.076Z,4.33
2019-03-10T21:26:30.723Z,3.33
2019-03-10T21:31:30.365Z,4.97
2019-03-10T21:36:30.271Z,4.23
2019-03-10T21:41:30.070Z,5.03
2019-03-10T21:46:29.730Z,5.93
2019-03-10T21:51:29.659Z,5.80
2019-03-10T21:56:29.291Z,8.13
2019-03-10T22:01:28.931Z,4.37
2019-03-10T22:06:28.622Z,5.40
2019-03-10T22:11:28.278Z,6.43
2019-03-10T22:16:27.939Z,5.43
2019-03-10T22:21:27.614Z,5.87
2019-03-10T22:26:27.323Z,4.33
2019-03-10T22:31:26.992Z,4.00
2019-03-10T22:36:26.735Z,3.63
2019-03-10T22:41:26.387Z,4.73
2019-03-10T22:46:26.031Z,5.33
2019-03-10T22:51:25.677Z,5.23
2019-03-10T22:56:25.603Z,3.40
2019-03-10T23:01:25.457Z,4.07
2019-03-10T23:06:25.137Z,3.70
2019-03-10T23:11:25.845Z,2.67
2019-03-10T23:16:25.570Z,3.93
2019-03-10T23:21:25.203Z,3.13
2019-03-10T23:26:25.156Z,4.40
2019-03-10T23:31:24.868Z,3.40
2019-03-10T23:36:24.505Z,4.33
2019-03-10T23:41:24.169Z,4.80
2019-03-10T23:46:24.107Z,5.00
2019-03-10T23:51:24.034Z,2.93
2019-03-10T23:56:23.691Z,3.97
